createdAt,value
2018-06-14T00:01:48.234Z,56.19
2018-06-14T00:04:14.203Z,55.40
2018-06-14T00:06:40.168Z,56.93
2018-06-14T00:09:06.126Z,56.44
2018-06-14T00:11:32.093Z,56.06
2018-06-14T00:13:58.071Z,57.00
2018-06-14T00:16:24.022Z,57.00
2018-06-14T00:18:50.000Z,57.02
2018-06-14T00:21:15.984Z,55.54
2018-06-14T00:23:41.946Z,56.74
2018-06-14T00:26:07.913Z,56.61
2018-06-14T00:28:33.866Z,55.89
2018-06-14T00:30:59.817Z,56.20
2018-06-14T00:33:25.774Z,57.10
2018-06-14T00:35:51.743Z,56.46
2018-06-14T00:38:17.712Z,57.23
2018-06-14T00:40:44.224Z,57.26
2018-06-14T00:43:10.190Z,57.24
2018-06-14T00:45:36.190Z,56.90
2018-06-14T00:48:02.155Z,56.38
2018-06-14T00:50:28.151Z,56.46
2018-06-14T00:52:54.205Z,56.14
2018-06-14T00:55:20.181Z,57.42
2018-06-14T00:57:46.131Z,56.55
2018-06-14T01:00:12.139Z,57.19
2018-06-14T01:02:38.108Z,56.51
2018-06-14T01:05:04.069Z,56.43
2018-06-14T01:07:30.035Z,56.80
2018-06-14T01:09:56.000Z,56.90
2018-06-14T01:12:21.977Z,56.72
2018-06-14T01:14:47.952Z,56.98
2018-06-14T01:17:13.928Z,57.02
2018-06-14T01:19:39.886Z,56.11
2018-06-14T01:22:05.868Z,57.03
2018-06-14T01:24:31.864Z,56.87
2018-06-14T01:26:57.827Z,57.61
2018-06-14T01:29:23.799Z,56.78
2018-06-14T01:31:49.762Z,56.29
2018-06-14T01:34:15.710Z,56.48
2018-06-14T01:36:41.688Z,57.35
2018-06-14T01:39:07.683Z,56.34
2018-06-14T01:41:33.676Z,57.22
2018-06-14T01:43:59.656Z,56.31
2018-06-14T01:46:25.636Z,56.80
2018-06-14T01:48:51.627Z,56.57
2018-06-14T01:51:17.608Z,57.14
2018-06-14T01:53:43.585Z,57.20
2018-06-14T01:56:09.539Z,56.54
2018-06-14T01:58:35.515Z,56.93
2018-06-14T02:01:01.468Z,57.26
2018-06-14T02:03:27.425Z,56.48
2018-06-14T02:05:53.510Z,57.08
2018-06-14T02:08:19.493Z,56.96
2018-06-14T02:10:45.447Z,57.43
2018-06-14T02:13:11.471Z,56.47
2018-06-14T02:15:37.460Z,55.63
2018-06-14T02:18:03.410Z,56.18
2018-06-14T02:20:29.367Z,56.26
2018-06-14T02:22:55.344Z,57.06
2018-06-14T02:25:21.325Z,56.64
2018-06-14T02:27:47.290Z,56.83
2018-06-14T02:30:13.252Z,56.08
2018-06-14T02:32:39.205Z,56.54
2018-06-14T02:35:05.189Z,57.30
2018-06-14T02:37:31.154Z,57.19
2018-06-14T02:39:57.121Z,57.45
2018-06-14T02:42:23.721Z,56.33
2018-06-14T02:44:49.683Z,57.32
2018-06-14T02:47:15.639Z,56.54
2018-06-14T02:49:41.617Z,56.64
2018-06-14T02:52:07.632Z,57.13
2018-06-14T02:54:33.601Z,56.77
2018-06-14T02:56:59.563Z,56.51
2018-06-14T02:59:25.552Z,55.74
2018-06-14T03:01:51.514Z,55.55
2018-06-14T03:04:17.492Z,56.15
2018-06-14T03:06:43.443Z,55.97
2018-06-14T03:09:09.427Z,56.56
2018-06-14T03:11:35.373Z,57.49
2018-06-14T03:14:01.356Z,57.72
2018-06-14T03:16:27.311Z,57.32
2018-06-14T03:18:53.285Z,57.31
2018-06-14T03:21:19.236Z,57.57
2018-06-14T03:23:45.276Z,56.85
2018-06-14T03:26:11.250Z,56.88
2018-06-14T03:28:37.210Z,57.20
2018-06-14T03:31:03.260Z,56.40
2018-06-14T03:33:29.315Z,57.52
2018-06-14T03:35:55.295Z,56.53
2018-06-14T03:38:21.270Z,56.14
2018-06-14T03:40:47.292Z,57.35
2018-06-14T03:43:13.263Z,56.37
2018-06-14T03:45:39.251Z,56.45
2018-06-14T03:48:05.266Z,57.32
2018-06-14T03:50:31.232Z,57.10
2018-06-14T03:52:57.190Z,57.64
2018-06-14T03:55:23.204Z,56.92
2018-06-14T03:57:49.182Z,56.73
2018-06-14T04:00:15.155Z,56.81
2018-06-14T04:02:41.129Z,56.83
2018-06-14T04:05:07.086Z,57.19
2018-06-14T04:07:33.755Z,58.00
2018-06-14T04:09:59.749Z,57.79
2018-06-14T04:12:25.727Z,57.67
2018-06-14T04:14:51.676Z,57.38
2018-06-14T04:17:17.641Z,57.46
2018-06-14T04:19:43.603Z,57.34
2018-06-14T04:22:09.569Z,57.52
2018-06-14T04:24:35.527Z,57.46
2018-06-14T04:27:01.480Z,57.32
2018-06-14T04:29:27.439Z,56.13
2018-06-14T04:31:53.409Z,56.70
2018-06-14T04:34:19.378Z,57.37
2018-06-14T04:36:45.331Z,57.36
2018-06-14T04:39:11.276Z,57.41
2018-06-14T04:41:37.301Z,57.00
2018-06-14T04:44:03.272Z,56.95
2018-06-14T04:46:29.231Z,56.78
2018-06-14T04:48:55.200Z,56.77
2018-06-14T04:51:21.187Z,57.15
2018-06-14T04:53:47.155Z,56.91
2018-06-14T04:56:13.128Z,56.75
2018-06-14T04:58:39.091Z,56.82
2018-06-14T05:01:05.083Z,57.90
2018-06-14T05:03:31.056Z,57.89
2018-06-14T05:05:57.011Z,57.08
2018-06-14T05:08:22.979Z,57.80
2018-06-14T05:10:48.926Z,58.19
2018-06-14T05:13:14.968Z,56.89
2018-06-14T05:15:40.967Z,56.99
2018-06-14T05:18:07.011Z,57.51
2018-06-14T05:20:32.924Z,57.46
2018-06-14T05:22:58.893Z,57.94
2018-06-14T05:25:24.865Z,57.93
2018-06-14T05:27:50.815Z,57.58
2018-06-14T05:30:16.786Z,57.73
2018-06-14T05:32:42.736Z,57.85
2018-06-14T05:35:08.722Z,57.14
2018-06-14T05:37:34.676Z,57.72
2018-06-14T05:40:00.634Z,57.04
2018-06-14T05:42:26.651Z,57.63
2018-06-14T05:44:52.633Z,56.77
2018-06-14T05:47:18.627Z,57.83
2018-06-14T05:49:44.587Z,58.58
2018-06-14T05:52:10.537Z,57.58
2018-06-14T05:54:36.572Z,57.55
2018-06-14T05:57:02.554Z,57.62
2018-06-14T05:59:28.616Z,58.68
2018-06-14T06:01:54.581Z,58.60
2018-06-14T06:04:20.529Z,57.88
2018-06-14T06:06:46.614Z,57.77
2018-06-14T06:09:12.565Z,57.10
2018-06-14T06:11:38.543Z,57.51
2018-06-14T06:14:04.495Z,57.88
2018-06-14T06:16:30.493Z,57.26
2018-06-14T06:18:56.575Z,57.87
2018-06-14T06:21:22.540Z,57.23
2018-06-14T06:23:48.576Z,58.02
2018-06-14T06:26:14.606Z,57.61
2018-06-14T06:28:40.496Z,57.03
2018-06-14T06:31:06.468Z,57.43
2018-06-14T06:33:32.469Z,57.44
2018-06-14T06:35:58.431Z,58.38
2018-06-14T06:38:24.425Z,57.10
2018-06-14T06:40:50.409Z,58.30
2018-06-14T06:43:16.363Z,57.34
2018-06-14T06:45:42.335Z,58.60
2018-06-14T06:48:08.282Z,57.32
2018-06-14T06:50:34.244Z,56.33
2018-06-14T06:53:00.327Z,56.73
2018-06-14T06:55:26.218Z,56.96
2018-06-14T06:57:52.184Z,56.89
2018-06-14T07:00:18.172Z,57.77
2018-06-14T07:02:44.121Z,57.64
2018-06-14T07:05:10.072Z,57.31
2018-06-14T07:07:36.076Z,57.25
2018-06-14T07:10:02.049Z,56.90
2018-06-14T07:12:28.016Z,57.22
2018-06-14T07:14:53.965Z,58.17
2018-06-14T07:17:19.926Z,57.87
2018-06-14T07:19:45.876Z,57.88
2018-06-14T07:22:11.832Z,57.81
2018-06-14T07:24:38.705Z,57.33
2018-06-14T07:27:04.674Z,57.34
2018-06-14T07:29:30.673Z,58.07
2018-06-14T07:31:56.636Z,58.02
2018-06-14T07:34:22.616Z,57.47
2018-06-14T07:36:48.648Z,57.99
2018-06-14T07:39:14.609Z,57.58
2018-06-14T07:41:40.602Z,56.91
2018-06-14T07:44:06.599Z,57.63
2018-06-14T07:46:32.556Z,57.43
2018-06-14T07:48:58.547Z,57.32
2018-06-14T07:51:24.525Z,57.14
2018-06-14T07:53:50.502Z,56.87
2018-06-14T07:56:16.528Z,57.59
2018-06-14T07:58:42.498Z,57.52
2018-06-14T08:01:08.513Z,57.49
2018-06-14T08:03:34.481Z,57.10
2018-06-14T08:06:00.444Z,58.03
2018-06-14T08:08:26.419Z,58.21
2018-06-14T08:10:52.384Z,57.74
2018-06-14T08:13:18.378Z,57.94
2018-06-14T08:15:44.351Z,57.28
2018-06-14T08:18:10.328Z,58.10
2018-06-14T08:20:36.297Z,56.96
2018-06-14T08:23:02.257Z,56.66
2018-06-14T08:25:28.234Z,57.16
2018-06-14T08:27:54.211Z,57.54
2018-06-14T08:30:20.376Z,57.47
2018-06-14T08:32:46.408Z,56.79
2018-06-14T08:35:12.368Z,57.42
2018-06-14T08:37:38.312Z,56.83
2018-06-14T08:40:04.278Z,56.69
2018-06-14T08:42:30.233Z,56.78
2018-06-14T08:44:56.214Z,57.78
2018-06-14T08:47:22.174Z,57.28
2018-06-14T08:49:48.135Z,58.37
2018-06-14T08:52:14.108Z,57.60
2018-06-14T08:54:40.083Z,57.49
2018-06-14T08:57:06.079Z,57.04
2018-06-14T08:59:32.075Z,57.09
2018-06-14T09:01:58.058Z,57.70
2018-06-14T09:04:23.999Z,56.59
2018-06-14T09:06:49.959Z,57.49
2018-06-14T09:09:15.927Z,56.95
2018-06-14T09:11:41.888Z,56.94
2018-06-14T09:14:07.868Z,57.56
2018-06-14T09:16:33.837Z,57.42
2018-06-14T09:18:59.798Z,57.37
2018-06-14T09:21:25.760Z,57.62
2018-06-14T09:23:51.734Z,56.75
2018-06-14T09:26:17.682Z,57.43
2018-06-14T09:28:43.686Z,57.28
2018-06-14T09:31:09.660Z,57.85
2018-06-14T09:33:35.640Z,57.68
2018-06-14T09:36:01.617Z,56.73
2018-06-14T09:38:27.579Z,56.72
2018-06-14T09:40:53.545Z,56.28
2018-06-14T09:43:19.509Z,56.39
2018-06-14T09:45:45.473Z,56.80
2018-06-14T09:48:11.440Z,56.93
2018-06-14T09:50:37.470Z,57.19
2018-06-14T09:53:03.475Z,56.63
2018-06-14T09:55:29.421Z,56.01
2018-06-14T09:57:55.395Z,56.11
2018-06-14T10:00:21.577Z,56.60
2018-06-14T10:02:47.478Z,56.45
2018-06-14T10:05:13.457Z,56.44
2018-06-14T10:07:39.416Z,57.65
2018-06-14T10:10:05.398Z,57.46
2018-06-14T10:12:31.362Z,57.51
2018-06-14T10:14:57.915Z,56.54
2018-06-14T10:17:23.889Z,56.22
2018-06-14T10:19:49.872Z,55.59
2018-06-14T10:22:15.851Z,56.47
2018-06-14T10:24:41.898Z,55.51
2018-06-14T10:27:07.883Z,55.52
2018-06-14T10:29:33.840Z,53.74
2018-06-14T10:31:59.813Z,54.24
2018-06-14T10:34:25.796Z,53.75
2018-06-14T10:36:51.774Z,54.72
2018-06-14T10:39:17.723Z,53.64
2018-06-14T10:41:43.674Z,52.74
2018-06-14T10:44:09.641Z,52.41
2018-06-14T10:46:35.618Z,54.19
2018-06-14T10:49:01.603Z,52.70
2018-06-14T10:51:27.580Z,52.52
2018-06-14T10:53:53.579Z,53.35
2018-06-14T10:56:19.583Z,54.02
2018-06-14T10:58:45.549Z,51.94
2018-06-14T11:01:11.549Z,54.51
2018-06-14T11:03:37.540Z,53.47
2018-06-14T11:06:03.599Z,52.94
2018-06-14T11:08:29.520Z,53.62
2018-06-14T11:10:55.527Z,54.51
2018-06-14T11:13:21.499Z,53.79
2018-06-14T11:15:47.452Z,53.26
2018-06-14T11:18:13.436Z,52.66
2018-06-14T11:20:39.459Z,52.16
2018-06-14T11:23:05.446Z,51.50
2018-06-14T11:25:31.431Z,52.20
2018-06-14T11:27:57.405Z,53.02
2018-06-14T11:30:23.381Z,51.36
2018-06-14T11:32:49.380Z,52.93
2018-06-14T11:35:15.368Z,53.73
2018-06-14T11:37:41.320Z,52.89
2018-06-14T11:40:07.279Z,53.38
2018-06-14T11:42:33.270Z,53.45
2018-06-14T11:44:59.212Z,51.74
2018-06-14T11:47:25.185Z,52.65
2018-06-14T11:49:51.153Z,53.06
2018-06-14T11:52:17.133Z,52.95
2018-06-14T11:54:43.103Z,53.02
2018-06-14T11:57:09.089Z,51.90
2018-06-14T11:59:35.060Z,50.94
2018-06-14T12:02:01.021Z,51.52
2018-06-14T12:04:26.979Z,51.12
2018-06-14T12:06:52.949Z,51.11
2018-06-14T12:09:18.913Z,52.34
2018-06-14T12:11:44.888Z,51.63
2018-06-14T12:14:10.886Z,52.15
2018-06-14T12:16:36.926Z,51.27
2018-06-14T12:19:02.913Z,52.13
2018-06-14T12:21:28.895Z,51.66
2018-06-14T12:23:54.881Z,51.96
2018-06-14T12:26:20.861Z,52.35
2018-06-14T12:28:46.900Z,53.44
2018-06-14T12:31:12.865Z,53.16
2018-06-14T12:33:38.827Z,53.03
2018-06-14T12:36:04.776Z,53.47
2018-06-14T12:38:30.728Z,52.52
2018-06-14T12:40:56.689Z,52.17
2018-06-14T12:43:22.640Z,53.41
2018-06-14T12:45:48.607Z,52.66
2018-06-14T12:48:14.556Z,53.78
2018-06-14T12:50:40.538Z,53.48
2018-06-14T12:53:06.519Z,53.94
2018-06-14T12:55:32.514Z,53.33
2018-06-14T12:57:58.542Z,53.53
2018-06-14T13:00:24.517Z,54.20
2018-06-14T13:02:50.505Z,53.57
2018-06-14T13:05:16.489Z,53.92
2018-06-14T13:07:42.452Z,53.90
2018-06-14T13:10:08.422Z,53.43
2018-06-14T13:12:34.389Z,53.29
2018-06-14T13:15:00.352Z,55.19
2018-06-14T13:17:26.347Z,54.34
2018-06-14T13:19:52.329Z,54.99
2018-06-14T13:22:18.284Z,53.87
2018-06-14T13:24:44.273Z,54.00
2018-06-14T13:27:10.232Z,54.08
2018-06-14T13:29:36.196Z,53.93
2018-06-14T13:32:02.160Z,54.33
2018-06-14T13:34:28.134Z,54.04
2018-06-14T13:36:54.088Z,54.84
2018-06-14T13:39:20.042Z,55.32
2018-06-14T13:41:46.037Z,54.11
2018-06-14T13:44:11.995Z,54.97
2018-06-14T13:46:37.949Z,54.40
2018-06-14T13:49:04.082Z,55.26
2018-06-14T13:51:29.879Z,54.59
2018-06-14T13:53:55.842Z,56.17
2018-06-14T13:56:21.791Z,55.52
2018-06-14T13:58:47.754Z,55.35
2018-06-14T14:01:14.676Z,55.83
2018-06-14T14:03:40.645Z,55.28
2018-06-14T14:06:06.612Z,55.51
2018-06-14T14:08:32.589Z,55.05
2018-06-14T14:10:58.577Z,55.95
2018-06-14T14:13:24.544Z,55.34
2018-06-14T14:15:50.569Z,55.20
2018-06-14T14:18:16.546Z,55.85
2018-06-14T14:20:42.538Z,55.55
2018-06-14T14:23:08.512Z,55.72
2018-06-14T14:25:34.485Z,55.45
2018-06-14T14:28:00.436Z,54.89
2018-06-14T14:30:26.442Z,55.87
2018-06-14T14:32:52.422Z,55.38
2018-06-14T14:35:18.416Z,56.16
2018-06-14T14:37:44.421Z,55.19
2018-06-14T14:40:10.420Z,55.90
2018-06-14T14:42:36.462Z,56.12
2018-06-14T14:45:02.394Z,57.01
2018-06-14T14:47:28.378Z,55.70
2018-06-14T14:49:54.334Z,55.02
2018-06-14T14:52:20.320Z,55.50
2018-06-14T14:54:46.330Z,56.37
2018-06-14T14:57:12.264Z,55.95
2018-06-14T14:59:38.227Z,55.76
2018-06-14T15:02:04.201Z,55.88
2018-06-14T15:04:30.165Z,56.43
2018-06-14T15:06:56.133Z,56.40
2018-06-14T15:09:22.111Z,55.87
2018-06-14T15:11:48.066Z,55.85
2018-06-14T15:14:14.051Z,55.53
2018-06-14T15:16:40.024Z,56.42
2018-06-14T15:19:05.989Z,56.53
2018-06-14T15:21:31.949Z,55.92
2018-06-14T15:23:57.914Z,55.92
2018-06-14T15:26:23.872Z,56.84
2018-06-14T15:28:49.849Z,56.55
2018-06-14T15:31:15.816Z,55.73
2018-06-14T15:33:41.818Z,56.68
2018-06-14T15:36:07.811Z,57.39
2018-06-14T15:38:33.806Z,57.15
2018-06-14T15:40:59.762Z,56.35
2018-06-14T15:43:25.762Z,57.28
2018-06-14T15:45:51.708Z,56.66
2018-06-14T15:48:17.667Z,56.42
2018-06-14T15:50:43.637Z,57.29
2018-06-14T15:53:09.692Z,56.48
2018-06-14T15:55:35.661Z,57.01
2018-06-14T15:58:01.658Z,57.03
2018-06-14T16:00:27.668Z,57.14
2018-06-14T16:02:53.665Z,56.92
2018-06-14T16:05:19.653Z,57.57
2018-06-14T16:07:45.636Z,56.58
2018-06-14T16:10:11.624Z,56.31
2018-06-14T16:12:37.619Z,58.02
2018-06-14T16:15:03.603Z,57.81
2018-06-14T16:17:29.583Z,58.68
2018-06-14T16:19:55.545Z,58.69
2018-06-14T16:22:21.518Z,59.07
2018-06-14T16:24:47.502Z,59.26
2018-06-14T16:27:13.458Z,58.81
2018-06-14T16:29:39.423Z,58.85
2018-06-14T16:32:05.387Z,59.75
2018-06-14T16:34:31.356Z,58.94
2018-06-14T16:36:57.351Z,59.24
2018-06-14T16:39:23.338Z,59.57
2018-06-14T16:41:49.323Z,59.51
2018-06-14T16:44:15.313Z,58.89
2018-06-14T16:46:41.342Z,58.92
2018-06-14T16:49:07.299Z,59.61
2018-06-14T16:51:33.260Z,58.85
2018-06-14T16:53:59.254Z,58.62
2018-06-14T16:56:25.217Z,59.67
2018-06-14T16:58:51.177Z,59.24
2018-06-14T17:01:17.196Z,58.89
2018-06-14T17:03:43.128Z,59.52
2018-06-14T17:06:09.082Z,59.59
2018-06-14T17:08:35.095Z,58.81
2018-06-14T17:11:01.083Z,58.50
2018-06-14T17:13:27.079Z,58.99
2018-06-14T17:15:53.066Z,58.88
2018-06-14T17:18:19.084Z,59.63
2018-06-14T17:20:45.153Z,59.78
2018-06-14T17:23:11.164Z,59.43
2018-06-14T17:25:37.157Z,60.09
2018-06-14T17:28:03.120Z,59.43
2018-06-14T17:30:29.152Z,59.18
2018-06-14T17:32:55.188Z,59.71
2018-06-14T17:35:21.193Z,58.50
2018-06-14T17:37:47.166Z,59.37
2018-06-14T17:40:13.123Z,59.14
2018-06-14T17:42:39.164Z,59.41
2018-06-14T17:45:05.158Z,59.11
2018-06-14T17:47:31.149Z,59.31
2018-06-14T17:49:57.171Z,60.01
2018-06-14T17:52:23.134Z,59.25
2018-06-14T17:54:51.197Z,59.18
2018-06-14T17:57:17.258Z,59.20
2018-06-14T17:59:43.230Z,59.13
2018-06-14T18:02:09.253Z,60.01
2018-06-14T18:04:35.246Z,59.88
2018-06-14T18:07:01.230Z,59.52
2018-06-14T18:09:27.221Z,59.93
2018-06-14T18:11:53.190Z,58.87
2018-06-14T18:14:19.174Z,59.62
2018-06-14T18:16:45.166Z,59.91
2018-06-14T18:19:11.167Z,58.90
2018-06-14T18:21:37.191Z,59.45
2018-06-14T18:24:03.240Z,59.96
2018-06-14T18:26:29.219Z,58.94
2018-06-14T18:28:55.202Z,60.30
2018-06-14T18:31:21.176Z,59.84
2018-06-14T18:33:47.164Z,59.27
2018-06-14T18:36:13.467Z,59.04
2018-06-14T18:38:39.445Z,59.74
2018-06-14T18:41:06.202Z,59.20
2018-06-14T18:43:32.175Z,58.75
2018-06-14T18:45:58.166Z,59.14
2018-06-14T18:48:24.148Z,59.76
2018-06-14T18:50:50.160Z,59.79
2018-06-14T18:53:16.206Z,60.73
2018-06-14T18:55:42.161Z,59.29
2018-06-14T18:58:08.145Z,58.83
2018-06-14T19:00:34.113Z,59.28
2018-06-14T19:03:00.093Z,59.33
2018-06-14T19:05:26.087Z,59.68
2018-06-14T19:07:52.060Z,59.64
2018-06-14T19:10:18.047Z,59.50
2018-06-14T19:12:44.058Z,59.51
2018-06-14T19:15:10.091Z,59.58
2018-06-14T19:17:36.198Z,59.17
2018-06-14T19:20:02.070Z,59.69
2018-06-14T19:22:28.077Z,59.90
2018-06-14T19:24:54.083Z,59.66
2018-06-14T19:27:20.040Z,59.08
2018-06-14T19:29:46.031Z,59.90
2018-06-14T19:32:12.071Z,59.11
2018-06-14T19:34:38.072Z,59.78
2018-06-14T19:37:04.077Z,58.89
2018-06-14T19:39:30.056Z,59.21
2018-06-14T19:41:56.085Z,59.95
2018-06-14T19:44:22.061Z,58.77
2018-06-14T19:46:48.096Z,57.75
2018-06-14T19:49:14.101Z,57.09
2018-06-14T19:51:40.161Z,57.40
2018-06-14T19:54:06.158Z,57.54
2018-06-14T19:56:32.140Z,57.62
2018-06-14T19:58:58.111Z,56.97
2018-06-14T20:01:24.096Z,57.18
2018-06-14T20:03:50.073Z,57.00
2018-06-14T20:06:16.071Z,56.75
2018-06-14T20:08:42.053Z,56.61
2018-06-14T20:11:08.077Z,57.67
2018-06-14T20:13:34.048Z,57.23
2018-06-14T20:16:00.070Z,57.00
2018-06-14T20:18:26.036Z,56.67
2018-06-14T20:20:52.116Z,56.78
2018-06-14T20:23:18.121Z,57.31
2018-06-14T20:25:44.092Z,57.09
2018-06-14T20:28:10.074Z,55.87
2018-06-14T20:30:36.061Z,56.44
2018-06-14T20:33:02.101Z,56.44
2018-06-14T20:35:28.128Z,55.78
2018-06-14T20:37:54.106Z,57.43
2018-06-14T20:40:20.089Z,57.68
2018-06-14T20:42:46.079Z,57.17
2018-06-14T20:45:12.059Z,57.98
2018-06-14T20:47:38.061Z,58.69
2018-06-14T20:50:04.049Z,58.99
2018-06-14T20:52:30.106Z,58.41
2018-06-14T20:54:56.093Z,58.30
2018-06-14T20:57:22.084Z,58.50
2018-06-14T20:59:48.089Z,59.10
2018-06-14T21:02:14.053Z,58.88
2018-06-14T21:04:40.056Z,58.80
2018-06-14T21:07:06.029Z,58.86
2018-06-14T21:09:32.030Z,58.85
2018-06-14T21:11:58.081Z,59.13
2018-06-14T21:14:24.128Z,57.89
2018-06-14T21:16:50.090Z,59.34
2018-06-14T21:19:16.111Z,59.04
2018-06-14T21:21:42.098Z,59.02
2018-06-14T21:24:08.097Z,59.35
2018-06-14T21:26:34.114Z,58.53
2018-06-14T21:29:00.111Z,58.69
2018-06-14T21:31:26.105Z,59.59
2018-06-14T21:33:52.130Z,59.01
2018-06-14T21:36:18.109Z,58.62
2018-06-14T21:38:44.138Z,58.39
2018-06-14T21:41:10.126Z,58.61
2018-06-14T21:43:36.114Z,58.90
2018-06-14T21:46:02.112Z,58.61
2018-06-14T21:48:28.141Z,58.45
2018-06-14T21:50:54.161Z,58.85
2018-06-14T21:53:20.211Z,58.10
2018-06-14T21:55:46.228Z,58.14
2018-06-14T21:58:12.255Z,58.18
2018-06-14T22:00:38.251Z,58.99
2018-06-14T22:03:04.270Z,58.57
2018-06-14T22:05:30.278Z,59.24
2018-06-14T22:07:56.250Z,59.04
2018-06-14T22:10:22.286Z,57.74
2018-06-14T22:12:48.298Z,59.43
2018-06-14T22:15:14.292Z,58.98
2018-06-14T22:17:40.658Z,59.20
2018-06-14T22:20:06.653Z,59.24
2018-06-14T22:22:32.657Z,58.90
2018-06-14T22:24:58.651Z,58.74
2018-06-14T22:27:24.672Z,58.65
2018-06-14T22:29:50.668Z,58.24
2018-06-14T22:32:16.641Z,58.65
2018-06-14T22:34:42.656Z,59.21
2018-06-14T22:37:08.637Z,59.38
2018-06-14T22:39:34.639Z,60.02
2018-06-14T22:42:00.686Z,59.91
2018-06-14T22:44:26.791Z,59.94
2018-06-14T22:46:52.728Z,59.48
2018-06-14T22:49:18.713Z,59.34
2018-06-14T22:51:44.775Z,60.17
2018-06-14T22:54:10.766Z,59.07
2018-06-14T22:56:36.744Z,58.74
2018-06-14T22:59:02.712Z,59.51
2018-06-14T23:01:28.681Z,59.12
2018-06-14T23:03:54.690Z,59.68
2018-06-14T23:06:20.725Z,59.15
2018-06-14T23:08:46.689Z,58.96
2018-06-14T23:11:12.696Z,59.60
2018-06-14T23:13:38.670Z,58.83
2018-06-14T23:16:04.649Z,59.32
2018-06-14T23:18:30.640Z,58.85
2018-06-14T23:20:56.618Z,59.67
2018-06-14T23:23:22.621Z,58.98
2018-06-14T23:25:48.700Z,59.87
2018-06-14T23:28:14.670Z,59.14
2018-06-14T23:30:40.668Z,60.75
2018-06-14T23:33:06.648Z,59.68
2018-06-14T23:35:32.623Z,59.44
2018-06-14T23:37:58.623Z,59.86
2018-06-14T23:40:24.615Z,59.90
2018-06-14T23:42:50.614Z,59.65
2018-06-14T23:45:16.598Z,59.20
2018-06-14T23:47:42.697Z,59.99
2018-06-14T23:50:08.714Z,59.64
2018-06-14T23:52:34.716Z,58.87
2018-06-14T23:55:00.679Z,59.09
2018-06-14T23:57:26.733Z,59.58
2018-06-14T23:59:53.712Z,58.92
